SBW242 CYDF-CYHZ
Flight info
| Callsign | SBW242 |
|---|---|
| Flight time | 1h 20m |
| Altitude | 36000 |
| Route | CAYLY CABOT5 |
| Aircraft | B738/M-SDE2E3FGHIRWXY/LB1 |
Departure
| Time | 2026-04-26 18:26 |
|---|---|
| Airport | Deer Lake Airport (CYDF) |
Arrival
| Time | 2026-04-26 19:47 |
|---|---|
| Airport | Halifax / Stanfield International Airport (CYHZ) |
| Time | Latitude | Longitude | Altitude | Speed | Heading |
|---|---|---|---|---|---|
| 2026-04-26 18:21 | 49.20958 | -57.39738 | 49 ft | 2 kts | 226° |
| 2026-04-26 18:22 | 49.20957 | -57.39740 | 49 ft | 1 kts | 226° |
| 2026-04-26 18:22 | 49.20934 | -57.39777 | 57 ft | 9 kts | 226° |
| 2026-04-26 18:23 | 49.20881 | -57.39853 | 55 ft | 11 kts | 213° |
| 2026-04-26 18:23 | 49.20809 | -57.39827 | 53 ft | 12 kts | 143° |
| 2026-04-26 18:23 | 49.20720 | -57.39761 | 51 ft | 16 kts | 196° |
| 2026-04-26 18:23 | 49.20637 | -57.39871 | 51 ft | 16 kts | 221° |
| 2026-04-26 18:24 | 49.20559 | -57.40004 | 49 ft | 17 kts | 231° |
| 2026-04-26 18:24 | 49.20482 | -57.40132 | 52 ft | 17 kts | 226° |
| 2026-04-26 18:24 | 49.20404 | -57.40263 | 52 ft | 17 kts | 230° |
| 2026-04-26 18:24 | 49.20321 | -57.40391 | 51 ft | 18 kts | 225° |
| 2026-04-26 18:25 | 49.20243 | -57.40533 | 53 ft | 14 kts | 242° |
| 2026-04-26 18:25 | 49.20206 | -57.40616 | 50 ft | 4 kts | 155° |
| 2026-04-26 18:25 | 49.20202 | -57.40575 | 51 ft | 4 kts | 63° |
| 2026-04-26 18:25 | 49.20215 | -57.40555 | 53 ft | 0 kts | 46° |
| 2026-04-26 18:26 | 49.20219 | -57.40549 | 51 ft | 8 kts | 46° |
| 2026-04-26 18:26 | 49.20484 | -57.40128 | 54 ft | 102 kts | 46° |
| 2026-04-26 18:26 | 49.21154 | -57.39056 | 242 ft | 164 kts | 46° |
| 2026-04-26 18:26 | 49.21919 | -57.37777 | 1519 ft | 160 kts | 45° |
| 2026-04-26 18:27 | 49.22374 | -57.36259 | 2893 ft | 172 kts | 82° |
| 2026-04-26 18:27 | 49.22180 | -57.34297 | 3473 ft | 209 kts | 109° |
| 2026-04-26 18:27 | 49.21203 | -57.32398 | 3807 ft | 245 kts | 133° |
| 2026-04-26 18:27 | 49.19725 | -57.30777 | 4234 ft | 278 kts | 154° |
| 2026-04-26 18:28 | 49.17677 | -57.30715 | 3796 ft | 336 kts | 204° |
| 2026-04-26 18:28 | 49.15633 | -57.32871 | 4302 ft | 350 kts | 225° |
| 2026-04-26 18:28 | 49.13857 | -57.35507 | 5186 ft | 366 kts | 227° |
| 2026-04-26 18:28 | 49.20974 | -57.39839 | 57 ft | 0 kts | 317° |
| 2026-04-26 18:31 | 49.20974 | -57.39838 | 57 ft | 0 kts | 317° |
| 2026-04-26 18:36 | 49.20964 | -57.39825 | 51 ft | 3 kts | 323° |
| 2026-04-26 18:36 | 49.20944 | -57.39807 | 53 ft | 3 kts | 343° |
| 2026-04-26 18:36 | 49.20929 | -57.39802 | 51 ft | 3 kts | 6° |
| 2026-04-26 18:36 | 49.20909 | -57.39816 | 50 ft | 1 kts | 46° |
| 2026-04-26 18:37 | 49.20907 | -57.39819 | 52 ft | 0 kts | 46° |
| 2026-04-26 18:39 | 49.20920 | -57.39798 | 57 ft | 5 kts | 46° |
| 2026-04-26 18:40 | 49.20960 | -57.39736 | 51 ft | 10 kts | 46° |
| 2026-04-26 18:40 | 49.21009 | -57.39657 | 53 ft | 10 kts | 46° |
| 2026-04-26 18:40 | 49.21057 | -57.39580 | 54 ft | 10 kts | 46° |
| 2026-04-26 18:40 | 49.21103 | -57.39504 | 52 ft | 10 kts | 54° |
| 2026-04-26 18:41 | 49.21102 | -57.39410 | 52 ft | 9 kts | 124° |
| 2026-04-26 18:41 | 49.21057 | -57.39335 | 53 ft | 10 kts | 135° |
| 2026-04-26 18:41 | 49.21051 | -57.39235 | 54 ft | 11 kts | 58° |
| 2026-04-26 18:41 | 49.21101 | -57.39136 | 51 ft | 12 kts | 49° |
| 2026-04-26 18:42 | 49.21160 | -57.39051 | 52 ft | 12 kts | 44° |
| 2026-04-26 18:42 | 49.21221 | -57.38956 | 50 ft | 14 kts | 46° |
| 2026-04-26 18:42 | 49.21292 | -57.38844 | 51 ft | 14 kts | 46° |
| 2026-04-26 18:42 | 49.21361 | -57.38732 | 52 ft | 15 kts | 46° |
| 2026-04-26 18:43 | 49.21436 | -57.38614 | 52 ft | 15 kts | 46° |
| 2026-04-26 18:43 | 49.21508 | -57.38498 | 53 ft | 15 kts | 46° |
| 2026-04-26 18:43 | 49.21588 | -57.38374 | 55 ft | 17 kts | 40° |
| 2026-04-26 18:43 | 49.21671 | -57.38317 | 50 ft | 9 kts | 16° |
| 2026-04-26 18:44 | 49.21684 | -57.38283 | 52 ft | 2 kts | 112° |
| 2026-04-26 18:44 | 49.21673 | -57.38268 | 51 ft | 2 kts | 155° |
| 2026-04-26 18:44 | 49.21658 | -57.38272 | 51 ft | 2 kts | 198° |
| 2026-04-26 18:44 | 49.21646 | -57.38287 | 50 ft | 2 kts | 223° |
| 2026-04-26 18:45 | 49.21642 | -57.38292 | 54 ft | 0 kts | 226° |
| 2026-04-26 18:45 | 49.21615 | -57.38338 | 55 ft | 29 kts | 225° |
| 2026-04-26 18:45 | 49.21287 | -57.38858 | 51 ft | 105 kts | 226° |
| 2026-04-26 18:45 | 49.20628 | -57.39906 | 51 ft | 166 kts | 227° |
| 2026-04-26 18:46 | 49.19790 | -57.41331 | 465 ft | 187 kts | 229° |
| 2026-04-26 18:46 | 49.18884 | -57.42769 | 1288 ft | 192 kts | 228° |
| 2026-04-26 18:46 | 49.17926 | -57.44191 | 2221 ft | 196 kts | 227° |
| 2026-04-26 18:46 | 49.16874 | -57.45725 | 2624 ft | 223 kts | 226° |
| 2026-04-26 18:47 | 49.15674 | -57.47473 | 2873 ft | 253 kts | 226° |
| 2026-04-26 18:47 | 49.14356 | -57.49397 | 3466 ft | 268 kts | 226° |
| 2026-04-26 18:47 | 49.12979 | -57.51407 | 4219 ft | 278 kts | 226° |
| 2026-04-26 18:47 | 49.11559 | -57.53495 | 4991 ft | 288 kts | 226° |
| 2026-04-26 18:48 | 49.10113 | -57.55640 | 5859 ft | 292 kts | 227° |
| 2026-04-26 18:48 | 49.08645 | -57.57819 | 6728 ft | 296 kts | 228° |
| 2026-04-26 18:48 | 49.07181 | -57.59993 | 7557 ft | 299 kts | 228° |
| 2026-04-26 18:48 | 49.05684 | -57.62210 | 8427 ft | 302 kts | 228° |
| 2026-04-26 18:49 | 49.04156 | -57.64471 | 9179 ft | 308 kts | 228° |
| 2026-04-26 18:49 | 49.02608 | -57.66757 | 9983 ft | 312 kts | 228° |
| 2026-04-26 18:49 | 49.01021 | -57.69101 | 10469 ft | 326 kts | 227° |
| 2026-04-26 18:49 | 48.99332 | -57.71601 | 10660 ft | 351 kts | 228° |
| 2026-04-26 18:50 | 48.97539 | -57.74248 | 11122 ft | 365 kts | 228° |
| 2026-04-26 18:50 | 48.95690 | -57.76966 | 11823 ft | 371 kts | 227° |
| 2026-04-26 18:50 | 48.93844 | -57.79670 | 12538 ft | 375 kts | 228° |
| 2026-04-26 18:50 | 48.91927 | -57.82476 | 13350 ft | 380 kts | 228° |
| 2026-04-26 18:51 | 48.90040 | -57.85236 | 14089 ft | 384 kts | 228° |
| 2026-04-26 18:51 | 48.88108 | -57.88058 | 14864 ft | 386 kts | 227° |
| 2026-04-26 18:51 | 48.86161 | -57.90897 | 15703 ft | 387 kts | 227° |
| 2026-04-26 18:51 | 48.84216 | -57.93733 | 16537 ft | 389 kts | 227° |
| 2026-04-26 18:52 | 48.82261 | -57.96580 | 17343 ft | 391 kts | 227° |
| 2026-04-26 18:52 | 48.80317 | -57.99410 | 18118 ft | 394 kts | 227° |
| 2026-04-26 18:52 | 48.78330 | -58.02299 | 18814 ft | 397 kts | 227° |
| 2026-04-26 18:52 | 48.76321 | -58.05217 | 19377 ft | 403 kts | 226° |
| 2026-04-26 18:53 | 48.74283 | -58.08176 | 19923 ft | 408 kts | 226° |
| 2026-04-26 18:53 | 48.72217 | -58.11169 | 20512 ft | 413 kts | 226° |
| 2026-04-26 18:53 | 48.70122 | -58.14202 | 21096 ft | 418 kts | 226° |
| 2026-04-26 18:53 | 48.68038 | -58.17214 | 21656 ft | 422 kts | 226° |
| 2026-04-26 18:54 | 48.65899 | -58.20301 | 22208 ft | 427 kts | 226° |
| 2026-04-26 18:54 | 48.63736 | -58.23420 | 22744 ft | 432 kts | 226° |
| 2026-04-26 18:54 | 48.61546 | -58.26574 | 23283 ft | 437 kts | 226° |
| 2026-04-26 18:54 | 48.59328 | -58.29764 | 23777 ft | 441 kts | 226° |
| 2026-04-26 18:55 | 48.57088 | -58.32981 | 24174 ft | 447 kts | 226° |
| 2026-04-26 18:55 | 48.54822 | -58.36231 | 24569 ft | 452 kts | 225° |
| 2026-04-26 18:55 | 48.52550 | -58.39487 | 24962 ft | 457 kts | 225° |
| 2026-04-26 18:55 | 48.50227 | -58.42809 | 25355 ft | 462 kts | 225° |
| 2026-04-26 18:56 | 48.47885 | -58.46156 | 25747 ft | 466 kts | 225° |
| 2026-04-26 18:56 | 48.45521 | -58.49528 | 26125 ft | 471 kts | 225° |
| 2026-04-26 18:56 | 48.43128 | -58.52938 | 26507 ft | 475 kts | 224° |
| 2026-04-26 18:56 | 48.40712 | -58.56376 | 26892 ft | 479 kts | 224° |
| 2026-04-26 18:57 | 48.38282 | -58.59828 | 27280 ft | 483 kts | 224° |
| 2026-04-26 18:57 | 48.36654 | -58.62139 | 27526 ft | 486 kts | 224° |
| 2026-04-26 18:57 | 48.33346 | -58.66828 | 28011 ft | 491 kts | 224° |
| 2026-04-26 18:57 | 48.30851 | -58.70358 | 28364 ft | 495 kts | 224° |
| 2026-04-26 18:58 | 48.28366 | -58.73869 | 28747 ft | 498 kts | 224° |
| 2026-04-26 18:58 | 48.25802 | -58.77488 | 29092 ft | 501 kts | 224° |
| 2026-04-26 18:58 | 48.23253 | -58.81080 | 29448 ft | 505 kts | 224° |
| 2026-04-26 18:58 | 48.20715 | -58.84650 | 29779 ft | 508 kts | 223° |
| 2026-04-26 18:59 | 48.18126 | -58.88287 | 30103 ft | 511 kts | 223° |
| 2026-04-26 18:59 | 48.15523 | -58.91940 | 30391 ft | 514 kts | 223° |
| 2026-04-26 18:59 | 48.12894 | -58.95623 | 30678 ft | 517 kts | 223° |
| 2026-04-26 18:59 | 48.10261 | -58.99306 | 30945 ft | 519 kts | 223° |
| 2026-04-26 19:00 | 48.07614 | -59.03003 | 31202 ft | 522 kts | 223° |
| 2026-04-26 19:00 | 48.04951 | -59.06718 | 31495 ft | 524 kts | 223° |
| 2026-04-26 19:00 | 48.02288 | -59.10426 | 31845 ft | 524 kts | 223° |
| 2026-04-26 19:00 | 47.99621 | -59.14136 | 32193 ft | 524 kts | 222° |
| 2026-04-26 19:01 | 47.96948 | -59.17847 | 32494 ft | 525 kts | 222° |
| 2026-04-26 19:01 | 47.94296 | -59.21524 | 32764 ft | 527 kts | 222° |
| 2026-04-26 19:01 | 47.91601 | -59.25254 | 33086 ft | 528 kts | 221° |
| 2026-04-26 19:01 | 47.88914 | -59.28969 | 33431 ft | 528 kts | 221° |
| 2026-04-26 19:02 | 47.86212 | -59.32698 | 33756 ft | 528 kts | 221° |
| 2026-04-26 19:02 | 47.83518 | -59.36412 | 34086 ft | 528 kts | 221° |
| 2026-04-26 19:02 | 47.80821 | -59.40125 | 34403 ft | 527 kts | 221° |
| 2026-04-26 19:02 | 47.79036 | -59.42578 | 34661 ft | 525 kts | 221° |
| 2026-04-26 19:03 | 47.75473 | -59.47471 | 35295 ft | 517 kts | 222° |
| 2026-04-26 19:03 | 47.72845 | -59.51072 | 35814 ft | 510 kts | 223° |
| 2026-04-26 19:03 | 47.70240 | -59.54637 | 36119 ft | 509 kts | 223° |
| 2026-04-26 19:03 | 47.67658 | -59.58165 | 36090 ft | 512 kts | 223° |
| 2026-04-26 19:04 | 47.62436 | -59.65284 | 36094 ft | 506 kts | 223° |
| 2026-04-26 19:04 | 47.57279 | -59.72295 | 36103 ft | 500 kts | 223° |
| 2026-04-26 19:05 | 47.49582 | -59.82724 | 36114 ft | 499 kts | 223° |
| 2026-04-26 19:06 | 47.44464 | -59.89634 | 36110 ft | 498 kts | 223° |
| 2026-04-26 19:06 | 47.39378 | -59.96483 | 36121 ft | 497 kts | 223° |
| 2026-04-26 19:07 | 47.34255 | -60.03363 | 36126 ft | 497 kts | 223° |
| 2026-04-26 19:07 | 47.29134 | -60.10221 | 36129 ft | 496 kts | 223° |
| 2026-04-26 19:08 | 47.24020 | -60.17051 | 36135 ft | 496 kts | 223° |
| 2026-04-26 19:08 | 47.18935 | -60.23824 | 36139 ft | 497 kts | 223° |
| 2026-04-26 19:09 | 47.13798 | -60.30648 | 36144 ft | 497 kts | 223° |
| 2026-04-26 19:09 | 47.08643 | -60.37476 | 36145 ft | 498 kts | 223° |
| 2026-04-26 19:10 | 47.03495 | -60.44278 | 36147 ft | 498 kts | 222° |
| 2026-04-26 19:10 | 46.98364 | -60.51038 | 36151 ft | 499 kts | 222° |
| 2026-04-26 19:11 | 46.93183 | -60.57846 | 36144 ft | 499 kts | 222° |
| 2026-04-26 19:11 | 46.88005 | -60.64631 | 36134 ft | 499 kts | 222° |
| 2026-04-26 19:12 | 46.82834 | -60.71389 | 36136 ft | 498 kts | 222° |
| 2026-04-26 19:12 | 46.77673 | -60.78116 | 36126 ft | 496 kts | 222° |
| 2026-04-26 19:13 | 46.72537 | -60.84793 | 36126 ft | 492 kts | 222° |
| 2026-04-26 19:13 | 46.67458 | -60.91376 | 36123 ft | 488 kts | 222° |
| 2026-04-26 19:14 | 46.62399 | -60.97919 | 36123 ft | 484 kts | 222° |
| 2026-04-26 19:14 | 46.57389 | -61.04380 | 36118 ft | 479 kts | 222° |
| 2026-04-26 19:15 | 46.52447 | -61.10737 | 36124 ft | 476 kts | 222° |
| 2026-04-26 19:15 | 46.47494 | -61.17092 | 36130 ft | 473 kts | 223° |
| 2026-04-26 19:16 | 46.42563 | -61.23403 | 36135 ft | 471 kts | 223° |
| 2026-04-26 19:16 | 46.37646 | -61.29682 | 36144 ft | 470 kts | 223° |
| 2026-04-26 19:17 | 46.32729 | -61.35944 | 36143 ft | 471 kts | 223° |
| 2026-04-26 19:17 | 46.27810 | -61.42194 | 36145 ft | 471 kts | 223° |
| 2026-04-26 19:18 | 46.22903 | -61.48412 | 36148 ft | 472 kts | 223° |
| 2026-04-26 19:18 | 46.17961 | -61.54659 | 35989 ft | 475 kts | 223° |
| 2026-04-26 19:18 | 46.15455 | -61.57824 | 35374 ft | 480 kts | 222° |
| 2026-04-26 19:19 | 46.12945 | -61.60987 | 34756 ft | 478 kts | 222° |
| 2026-04-26 19:19 | 46.10441 | -61.64139 | 34086 ft | 479 kts | 221° |
| 2026-04-26 19:19 | 46.07923 | -61.67304 | 33275 ft | 480 kts | 221° |
| 2026-04-26 19:19 | 46.05432 | -61.70429 | 32535 ft | 480 kts | 222° |
| 2026-04-26 19:20 | 46.02927 | -61.73569 | 32058 ft | 474 kts | 222° |
| 2026-04-26 19:20 | 46.02091 | -61.74616 | 31880 ft | 473 kts | 222° |
| 2026-04-26 19:20 | 45.97991 | -61.79744 | 31027 ft | 466 kts | 223° |
| 2026-04-26 19:20 | 45.95556 | -61.82786 | 30528 ft | 462 kts | 223° |
| 2026-04-26 19:21 | 45.93140 | -61.85800 | 29997 ft | 458 kts | 223° |
| 2026-04-26 19:21 | 45.90743 | -61.88787 | 29438 ft | 454 kts | 223° |
| 2026-04-26 19:21 | 45.88367 | -61.91743 | 28924 ft | 449 kts | 223° |
| 2026-04-26 19:21 | 45.86009 | -61.94674 | 28402 ft | 445 kts | 223° |
| 2026-04-26 19:22 | 45.83699 | -61.97543 | 27902 ft | 441 kts | 223° |
| 2026-04-26 19:22 | 45.81386 | -62.00412 | 27386 ft | 438 kts | 224° |
| 2026-04-26 19:22 | 45.79086 | -62.03262 | 26881 ft | 435 kts | 224° |
| 2026-04-26 19:22 | 45.76810 | -62.06079 | 26390 ft | 431 kts | 224° |
| 2026-04-26 19:23 | 45.75307 | -62.07936 | 26064 ft | 430 kts | 224° |
| 2026-04-26 19:23 | 45.72289 | -62.11663 | 25410 ft | 427 kts | 224° |
| 2026-04-26 19:23 | 45.70801 | -62.13499 | 25086 ft | 425 kts | 224° |
| 2026-04-26 19:23 | 45.68560 | -62.16261 | 24593 ft | 423 kts | 224° |
| 2026-04-26 19:24 | 45.66329 | -62.19007 | 24099 ft | 422 kts | 224° |
| 2026-04-26 19:24 | 45.64105 | -62.21744 | 23585 ft | 421 kts | 224° |
| 2026-04-26 19:24 | 45.59883 | -62.27388 | 22493 ft | 414 kts | 232° |
| 2026-04-26 19:25 | 45.57992 | -62.30468 | 21994 ft | 410 kts | 234° |
| 2026-04-26 19:25 | 45.56777 | -62.32523 | 21664 ft | 408 kts | 234° |
| 2026-04-26 19:25 | 45.54349 | -62.36646 | 21038 ft | 403 kts | 234° |
| 2026-04-26 19:25 | 45.52535 | -62.39687 | 20566 ft | 401 kts | 234° |
| 2026-04-26 19:26 | 45.50713 | -62.42701 | 20106 ft | 398 kts | 233° |
| 2026-04-26 19:26 | 45.48899 | -62.45668 | 19646 ft | 396 kts | 233° |
| 2026-04-26 19:26 | 45.47109 | -62.48577 | 19196 ft | 394 kts | 233° |
| 2026-04-26 19:26 | 45.45287 | -62.51526 | 18722 ft | 386 kts | 233° |
| 2026-04-26 19:27 | 45.43561 | -62.54308 | 18256 ft | 375 kts | 233° |
| 2026-04-26 19:27 | 45.41857 | -62.57052 | 17756 ft | 365 kts | 233° |
| 2026-04-26 19:27 | 45.40198 | -62.59723 | 17322 ft | 355 kts | 233° |
| 2026-04-26 19:27 | 45.38576 | -62.62335 | 16809 ft | 349 kts | 233° |
| 2026-04-26 19:28 | 45.36981 | -62.64902 | 16374 ft | 343 kts | 233° |
| 2026-04-26 19:28 | 45.35412 | -62.67426 | 15959 ft | 340 kts | 233° |
| 2026-04-26 19:28 | 45.33828 | -62.69977 | 15569 ft | 350 kts | 233° |
| 2026-04-26 19:28 | 45.32192 | -62.72613 | 15136 ft | 358 kts | 232° |
| 2026-04-26 19:29 | 45.30539 | -62.75265 | 14697 ft | 358 kts | 232° |
| 2026-04-26 19:29 | 45.28890 | -62.77903 | 14266 ft | 356 kts | 232° |
| 2026-04-26 19:29 | 45.27245 | -62.80533 | 13819 ft | 355 kts | 232° |
| 2026-04-26 19:29 | 45.25627 | -62.83116 | 13351 ft | 353 kts | 232° |
| 2026-04-26 19:30 | 45.23998 | -62.85716 | 12909 ft | 350 kts | 232° |
| 2026-04-26 19:30 | 45.22383 | -62.88292 | 12483 ft | 347 kts | 232° |
| 2026-04-26 19:30 | 45.20786 | -62.90839 | 12069 ft | 345 kts | 232° |
| 2026-04-26 19:30 | 45.19730 | -62.92519 | 11792 ft | 341 kts | 232° |
| 2026-04-26 19:31 | 45.17668 | -62.95794 | 11276 ft | 325 kts | 232° |
| 2026-04-26 19:31 | 45.16183 | -62.98152 | 10890 ft | 315 kts | 231° |
| 2026-04-26 19:31 | 45.14736 | -63.00448 | 10549 ft | 309 kts | 231° |
| 2026-04-26 19:31 | 45.13327 | -63.02677 | 10418 ft | 298 kts | 232° |
| 2026-04-26 19:32 | 45.11976 | -63.04821 | 10304 ft | 294 kts | 231° |
| 2026-04-26 19:32 | 45.10603 | -63.06992 | 10190 ft | 296 kts | 231° |
| 2026-04-26 19:32 | 45.09245 | -63.09139 | 10046 ft | 285 kts | 231° |
| 2026-04-26 19:32 | 45.07950 | -63.11182 | 9813 ft | 274 kts | 232° |
| 2026-04-26 19:33 | 45.06696 | -63.13160 | 9552 ft | 265 kts | 232° |
| 2026-04-26 19:33 | 45.05477 | -63.15084 | 9266 ft | 262 kts | 231° |
| 2026-04-26 19:33 | 45.04258 | -63.17007 | 9010 ft | 262 kts | 232° |
| 2026-04-26 19:33 | 45.03051 | -63.18910 | 8749 ft | 266 kts | 231° |
| 2026-04-26 19:34 | 45.01792 | -63.20900 | 8490 ft | 276 kts | 231° |
| 2026-04-26 19:34 | 45.00502 | -63.22930 | 8196 ft | 276 kts | 231° |
| 2026-04-26 19:34 | 44.99230 | -63.24925 | 7891 ft | 269 kts | 231° |
| 2026-04-26 19:34 | 44.97997 | -63.26858 | 7612 ft | 261 kts | 231° |
| 2026-04-26 19:35 | 44.96656 | -63.28571 | 7359 ft | 260 kts | 220° |
| 2026-04-26 19:35 | 44.95158 | -63.30067 | 7117 ft | 268 kts | 217° |
| 2026-04-26 19:35 | 44.93592 | -63.31569 | 6859 ft | 276 kts | 217° |
| 2026-04-26 19:35 | 44.92006 | -63.33093 | 6572 ft | 276 kts | 217° |
| 2026-04-26 19:36 | 44.90423 | -63.34628 | 6266 ft | 275 kts | 217° |
| 2026-04-26 19:36 | 44.89378 | -63.35648 | 6071 ft | 275 kts | 217° |
| 2026-04-26 19:36 | 44.87282 | -63.37706 | 5690 ft | 273 kts | 218° |
| 2026-04-26 19:36 | 44.85726 | -63.39240 | 5445 ft | 271 kts | 218° |
| 2026-04-26 19:37 | 44.84205 | -63.40742 | 5328 ft | 263 kts | 218° |
| 2026-04-26 19:37 | 44.82725 | -63.42205 | 5205 ft | 256 kts | 218° |
| 2026-04-26 19:37 | 44.81283 | -63.43629 | 5099 ft | 249 kts | 217° |
| 2026-04-26 19:37 | 44.79903 | -63.44993 | 4989 ft | 242 kts | 218° |
| 2026-04-26 19:38 | 44.78561 | -63.46317 | 4872 ft | 237 kts | 218° |
| 2026-04-26 19:38 | 44.77214 | -63.47648 | 4755 ft | 235 kts | 218° |
| 2026-04-26 19:38 | 44.75875 | -63.48969 | 4653 ft | 236 kts | 218° |
| 2026-04-26 19:38 | 44.74521 | -63.50305 | 4549 ft | 239 kts | 217° |
| 2026-04-26 19:39 | 44.73157 | -63.51649 | 4426 ft | 239 kts | 218° |
| 2026-04-26 19:39 | 44.71819 | -63.52966 | 4318 ft | 228 kts | 218° |
| 2026-04-26 19:39 | 44.70548 | -63.54215 | 4194 ft | 217 kts | 218° |
| 2026-04-26 19:39 | 44.69335 | -63.55407 | 4052 ft | 210 kts | 218° |
| 2026-04-26 19:40 | 44.68159 | -63.56562 | 3968 ft | 202 kts | 218° |
| 2026-04-26 19:40 | 44.67087 | -63.57709 | 3904 ft | 190 kts | 223° |
| 2026-04-26 19:40 | 44.66068 | -63.58885 | 3956 ft | 185 kts | 229° |
| 2026-04-26 19:40 | 44.65579 | -63.60438 | 3980 ft | 173 kts | 281° |
| 2026-04-26 19:41 | 44.65986 | -63.61829 | 3988 ft | 167 kts | 314° |
| 2026-04-26 19:41 | 44.66893 | -63.62775 | 3977 ft | 162 kts | 343° |
| 2026-04-26 19:41 | 44.67995 | -63.62865 | 3971 ft | 160 kts | 14° |
| 2026-04-26 19:41 | 44.68700 | -63.62520 | 3817 ft | 168 kts | 16° |
| 2026-04-26 19:42 | 44.70190 | -63.61981 | 3583 ft | 160 kts | 12° |
| 2026-04-26 19:42 | 44.71265 | -63.61616 | 3265 ft | 159 kts | 12° |
| 2026-04-26 19:42 | 44.72366 | -63.61240 | 2820 ft | 165 kts | 12° |
| 2026-04-26 19:42 | 44.73495 | -63.60850 | 2406 ft | 169 kts | 12° |
| 2026-04-26 19:43 | 44.74626 | -63.60456 | 1962 ft | 164 kts | 12° |
| 2026-04-26 19:43 | 44.75676 | -63.60087 | 1802 ft | 147 kts | 12° |
| 2026-04-26 19:43 | 44.76639 | -63.59748 | 1789 ft | 142 kts | 12° |
| 2026-04-26 19:43 | 44.77600 | -63.59411 | 1814 ft | 138 kts | 13° |
| 2026-04-26 19:44 | 44.78506 | -63.59090 | 1768 ft | 133 kts | 12° |
| 2026-04-26 19:44 | 44.79387 | -63.58779 | 1777 ft | 130 kts | 11° |
| 2026-04-26 19:44 | 44.80285 | -63.58456 | 1795 ft | 132 kts | 15° |
| 2026-04-26 19:44 | 44.81114 | -63.57917 | 1716 ft | 136 kts | 26° |
| 2026-04-26 19:45 | 44.81941 | -63.57262 | 1542 ft | 135 kts | 27° |
| 2026-04-26 19:45 | 44.82717 | -63.56536 | 1358 ft | 132 kts | 32° |
| 2026-04-26 19:45 | 44.83468 | -63.55794 | 1177 ft | 133 kts | 30° |
| 2026-04-26 19:45 | 44.84226 | -63.55042 | 1013 ft | 135 kts | 31° |
| 2026-04-26 19:46 | 44.85006 | -63.54269 | 835 ft | 138 kts | 31° |
| 2026-04-26 19:46 | 44.85790 | -63.53471 | 685 ft | 139 kts | 30° |
| 2026-04-26 19:46 | 44.86555 | -63.52707 | 510 ft | 131 kts | 32° |
| 2026-04-26 19:46 | 44.87273 | -63.52031 | 454 ft | 113 kts | 34° |
| 2026-04-26 19:47 | 44.87792 | -63.51513 | 457 ft | 69 kts | 34° |
| 2026-04-26 19:47 | 44.88018 | -63.51293 | 454 ft | 48 kts | 35° |
| 2026-04-26 19:47 | 44.88278 | -63.51049 | 453 ft | 25 kts | 22° |
| 2026-04-26 19:47 | 44.88390 | -63.51162 | 454 ft | 24 kts | 309° |
| 2026-04-26 19:48 | 44.88524 | -63.51219 | 453 ft | 19 kts | 351° |
| 2026-04-26 19:48 | 44.88549 | -63.51266 | 453 ft | 9 kts | 272° |
| 2026-04-26 19:48 | 44.88550 | -63.51341 | 453 ft | 7 kts | 270° |
| 2026-04-26 19:48 | 44.88549 | -63.51371 | 453 ft | 0 kts | 270° |